createdAt,value
2022-12-12T00:00:40.095Z,7.20
2022-12-12T00:03:07.893Z,7.80
2022-12-12T00:05:35.339Z,8.23
2022-12-12T00:08:02.788Z,7.65
2022-12-12T00:10:30.456Z,8.00
2022-12-12T00:12:57.748Z,7.62
2022-12-12T00:15:25.082Z,7.87
2022-12-12T00:17:52.684Z,8.63
2022-12-12T00:20:20.240Z,7.00
2022-12-12T00:22:47.564Z,7.85
2022-12-12T00:25:15.492Z,7.70
2022-12-12T00:27:42.970Z,7.50
2022-12-12T00:30:10.596Z,8.10
2022-12-12T00:32:38.268Z,7.65
2022-12-12T00:35:06.248Z,7.03
2022-12-12T00:37:33.641Z,7.55
2022-12-12T00:40:01.262Z,8.00
2022-12-12T00:42:28.598Z,8.55
2022-12-12T00:44:55.932Z,8.15
2022-12-12T00:47:23.524Z,6.65
2022-12-12T00:49:51.053Z,8.18
2022-12-12T00:52:18.386Z,6.82
2022-12-12T00:54:45.975Z,8.15
2022-12-12T00:57:13.262Z,8.50
2022-12-12T00:59:40.631Z,8.10
2022-12-12T01:02:08.403Z,7.95
2022-12-12T01:04:35.810Z,7.18
2022-12-12T01:07:03.129Z,8.85
2022-12-12T01:09:30.814Z,7.40
2022-12-12T01:11:58.119Z,7.45
2022-12-12T01:14:25.431Z,7.85
2022-12-12T01:16:52.978Z,8.07
2022-12-12T01:19:20.311Z,8.35
2022-12-12T01:21:47.680Z,7.62
2022-12-12T01:24:15.325Z,8.13
2022-12-12T01:26:42.642Z,7.95
2022-12-12T01:29:10.147Z,8.35
2022-12-12T01:31:37.830Z,8.25
2022-12-12T01:34:05.228Z,9.02
2022-12-12T01:36:32.757Z,8.40
2022-12-12T01:39:00.691Z,8.93
2022-12-12T01:41:28.043Z,8.45
2022-12-12T01:43:55.558Z,8.90
2022-12-12T01:46:37.791Z,8.43
2022-12-12T01:49:37.730Z,8.27
2022-12-12T01:52:11.555Z,8.68
2022-12-12T01:54:41.281Z,8.57
2022-12-12T01:57:13.778Z,8.93
2022-12-12T01:59:41.404Z,8.63
2022-12-12T02:02:09.955Z,10.02
2022-12-12T02:04:37.748Z,9.20
2022-12-12T02:07:05.121Z,9.18
2022-12-12T02:09:33.791Z,9.45
2022-12-12T02:12:01.424Z,9.65
2022-12-12T02:14:31.509Z,9.15
2022-12-12T02:17:09.278Z,8.68
2022-12-12T02:20:04.992Z,8.55
2022-12-12T02:23:08.910Z,8.75
2022-12-12T02:25:58.224Z,8.10
2022-12-12T02:28:37.245Z,8.23
2022-12-12T02:31:10.685Z,9.00
2022-12-12T02:34:09.230Z,8.90
2022-12-12T02:36:45.972Z,8.38
2022-12-12T02:39:54.584Z,8.20
2022-12-12T02:42:30.008Z,7.93
2022-12-12T02:45:08.042Z,8.93
2022-12-12T02:47:51.951Z,7.82
2022-12-12T02:50:24.779Z,7.80
2022-12-12T02:52:52.427Z,7.05
2022-12-12T02:55:20.121Z,8.30
2022-12-12T02:57:48.327Z,8.07
2022-12-12T03:00:18.071Z,7.78
2022-12-12T03:03:16.464Z,8.00
2022-12-12T03:06:40.667Z,8.40
2022-12-12T03:09:26.363Z,7.72
2022-12-12T03:12:08.180Z,8.02
2022-12-12T03:14:52.188Z,8.18
2022-12-12T03:17:30.244Z,8.23
2022-12-12T03:20:04.289Z,7.87
2022-12-12T03:22:39.138Z,8.23
2022-12-12T03:25:28.326Z,7.82
2022-12-12T03:28:05.162Z,8.65
2022-12-12T03:30:35.401Z,8.82
2022-12-12T03:33:19.112Z,7.95
2022-12-12T03:35:56.999Z,7.80
2022-12-12T03:38:29.664Z,8.73
2022-12-12T03:41:01.694Z,7.90
2022-12-12T03:43:35.505Z,7.55
2022-12-12T03:46:12.912Z,8.00
2022-12-12T03:48:44.007Z,7.95
2022-12-12T03:51:36.218Z,7.28
2022-12-12T03:54:09.358Z,6.25
2022-12-12T03:56:51.026Z,7.45
2022-12-12T03:59:27.150Z,6.47
2022-12-12T04:02:04.100Z,7.05
2022-12-12T04:04:37.575Z,6.47
2022-12-12T04:07:16.716Z,6.45
2022-12-12T04:10:02.771Z,6.55
2022-12-12T04:12:56.182Z,7.00
2022-12-12T04:15:46.773Z,5.85
2022-12-12T04:18:18.629Z,6.28
2022-12-12T04:21:23.435Z,6.97
2022-12-12T04:24:13.882Z,6.03
2022-12-12T04:26:46.093Z,7.00
2022-12-12T04:29:19.379Z,12.05
2022-12-12T04:31:53.178Z,12.65
2022-12-12T04:34:44.299Z,10.65
2022-12-12T04:37:15.247Z,8.23
2022-12-12T04:39:43.765Z,6.97
2022-12-12T04:42:15.085Z,6.90
2022-12-12T04:44:43.742Z,6.70
2022-12-12T04:47:11.751Z,6.43
2022-12-12T04:49:40.160Z,6.75
2022-12-12T04:52:09.806Z,5.93
2022-12-12T04:54:42.990Z,6.70
2022-12-12T04:57:16.104Z,7.07
2022-12-12T04:59:43.922Z,7.12
2022-12-12T05:02:39.445Z,6.85
2022-12-12T05:05:11.387Z,7.18
2022-12-12T05:10:25.661Z,6.53
2022-12-12T05:13:00.846Z,6.65
2022-12-12T05:15:28.923Z,6.05
2022-12-12T05:18:08.685Z,6.03
2022-12-12T05:20:36.054Z,6.93
2022-12-12T05:23:04.076Z,7.00
2022-12-12T05:25:31.508Z,7.68
2022-12-12T05:27:58.875Z,8.15
2022-12-12T05:30:26.506Z,8.40
2022-12-12T05:32:54.269Z,9.02
2022-12-12T05:35:22.074Z,7.62
2022-12-12T05:37:51.936Z,8.50
2022-12-12T05:40:20.915Z,8.18
2022-12-12T05:42:48.275Z,7.90
2022-12-12T05:45:16.041Z,8.30
2022-12-12T05:47:43.415Z,7.87
2022-12-12T05:50:11.022Z,8.57
2022-12-12T05:52:38.642Z,9.13
2022-12-12T05:55:06.895Z,8.30
2022-12-12T05:57:34.229Z,8.30
2022-12-12T06:00:02.055Z,8.73
2022-12-12T06:02:32.602Z,7.37
2022-12-12T06:05:00.307Z,7.75
2022-12-12T06:07:27.611Z,8.35
2022-12-12T06:09:55.845Z,8.10
2022-12-12T06:12:23.579Z,7.62
2022-12-12T06:14:50.981Z,8.15
2022-12-12T06:17:18.284Z,8.13
2022-12-12T06:19:45.902Z,8.63
2022-12-12T06:22:13.253Z,8.68
2022-12-12T06:24:41.335Z,7.55
2022-12-12T06:27:08.983Z,8.32
2022-12-12T06:29:36.326Z,8.85
2022-12-12T06:32:03.906Z,8.77
2022-12-12T06:34:31.484Z,9.68
2022-12-12T06:36:58.926Z,8.77
2022-12-12T06:39:26.267Z,8.85
2022-12-12T06:41:53.843Z,9.55
2022-12-12T06:44:21.151Z,8.43
2022-12-12T06:46:48.492Z,8.02
2022-12-12T06:49:16.264Z,8.98
2022-12-12T06:51:46.327Z,9.23
2022-12-12T06:54:16.158Z,9.77
2022-12-12T06:56:48.161Z,8.60
2022-12-12T07:01:44.502Z,8.30
2022-12-12T07:04:12.727Z,8.65
2022-12-12T07:06:40.362Z,8.40
2022-12-12T07:09:08.306Z,9.13
2022-12-12T07:11:35.641Z,8.25
2022-12-12T07:14:05.585Z,8.60
2022-12-12T07:16:33.787Z,9.07
2022-12-12T07:19:01.139Z,8.57
2022-12-12T07:21:28.504Z,9.52
2022-12-12T07:23:57.016Z,9.25
2022-12-12T07:26:24.862Z,9.15
2022-12-12T07:28:52.367Z,9.27
2022-12-12T07:31:22.247Z,9.27
2022-12-12T07:33:49.692Z,9.00
2022-12-12T07:36:17.428Z,8.30
2022-12-12T07:38:45.083Z,8.63
2022-12-12T07:41:15.253Z,8.65
2022-12-12T07:43:44.707Z,8.88
2022-12-12T07:46:18.308Z,8.85
2022-12-12T07:48:45.997Z,8.88
2022-12-12T07:51:14.361Z,7.97
2022-12-12T07:53:41.865Z,8.40
2022-12-12T07:56:10.535Z,9.00
2022-12-12T07:58:38.396Z,8.75
2022-12-12T08:01:20.198Z,8.52
2022-12-12T08:03:48.858Z,8.57
2022-12-12T08:06:18.152Z,7.40
2022-12-12T08:08:46.385Z,7.78
2022-12-12T08:11:16.333Z,8.48
2022-12-12T08:13:44.089Z,8.00
2022-12-12T08:16:20.711Z,7.87
2022-12-12T08:18:49.365Z,8.35
2022-12-12T08:21:23.203Z,8.50
2022-12-12T08:24:00.272Z,8.15
2022-12-12T08:26:28.438Z,8.75
2022-12-12T08:28:56.689Z,7.75
2022-12-12T08:31:24.860Z,7.60
2022-12-12T08:33:53.156Z,7.43
2022-12-12T08:36:31.688Z,7.75
2022-12-12T08:39:04.124Z,7.20
2022-12-12T08:41:31.766Z,6.82
2022-12-12T08:43:59.263Z,6.75
2022-12-12T08:46:26.798Z,7.32
2022-12-12T08:48:54.484Z,6.68
2022-12-12T08:51:22.544Z,8.30
2022-12-12T08:53:51.576Z,6.65
2022-12-12T08:56:20.750Z,6.55
2022-12-12T08:58:48.433Z,6.68
2022-12-12T09:01:18.327Z,6.55
2022-12-12T09:03:46.377Z,5.97
2022-12-12T09:06:14.483Z,6.40
2022-12-12T09:08:41.932Z,6.55
2022-12-12T09:11:10.777Z,7.18
2022-12-12T09:13:38.306Z,6.87
2022-12-12T09:16:07.726Z,6.35
2022-12-12T09:18:36.043Z,6.93
2022-12-12T09:21:03.556Z,6.47
2022-12-12T09:23:31.270Z,6.60
2022-12-12T09:25:58.971Z,6.60
2022-12-12T09:28:26.912Z,7.05
2022-12-12T09:30:54.290Z,6.93
2022-12-12T09:33:21.949Z,7.30
2022-12-12T09:35:57.499Z,7.28
2022-12-12T09:38:25.289Z,6.80
2022-12-12T09:41:09.307Z,7.12
2022-12-12T09:44:01.311Z,6.93
2022-12-12T09:46:39.472Z,6.85
2022-12-12T09:49:15.853Z,7.00
2022-12-12T09:51:46.424Z,5.65
2022-12-12T09:54:19.107Z,7.07
2022-12-12T09:57:02.768Z,6.00
2022-12-12T09:59:39.235Z,7.03
2022-12-12T10:02:20.315Z,7.75
2022-12-12T10:05:00.923Z,6.65
2022-12-12T10:07:43.349Z,6.15
2022-12-12T10:12:38.604Z,6.30
2022-12-12T10:15:08.999Z,6.82
2022-12-12T10:17:41.083Z,7.32
2022-12-12T10:20:16.924Z,7.25
2022-12-12T10:23:07.510Z,6.62
2022-12-12T10:25:39.695Z,6.45
2022-12-12T10:31:01.960Z,6.17
2022-12-12T10:33:36.769Z,7.10
2022-12-12T10:36:25.691Z,5.70
2022-12-12T10:39:13.306Z,5.85
2022-12-12T10:41:51.567Z,6.53
2022-12-12T10:45:02.557Z,6.12
2022-12-12T10:47:30.552Z,5.95
2022-12-12T10:50:13.331Z,6.03
2022-12-12T10:52:41.024Z,5.18
2022-12-12T10:55:42.872Z,4.82
2022-12-12T10:58:10.191Z,4.50
2022-12-12T11:00:40.472Z,4.87
2022-12-12T11:03:32.508Z,4.80
2022-12-12T11:06:04.736Z,4.45
2022-12-12T11:08:34.795Z,4.00
2022-12-12T11:11:14.076Z,4.40
2022-12-12T11:13:49.219Z,5.15
2022-12-12T11:16:26.849Z,5.28
2022-12-12T11:19:05.252Z,5.78
2022-12-12T11:21:35.808Z,4.60
2022-12-12T11:24:08.151Z,5.68
2022-12-12T11:26:42.036Z,5.35
2022-12-12T11:29:27.580Z,5.20
2022-12-12T11:31:55.427Z,4.93
2022-12-12T11:34:25.259Z,5.07
2022-12-12T11:36:53.343Z,5.28
2022-12-12T11:39:39.910Z,5.25
2022-12-12T11:42:13.272Z,5.37
2022-12-12T11:44:43.452Z,5.22
2022-12-12T11:47:28.121Z,5.22
2022-12-12T11:49:59.965Z,5.35
2022-12-12T11:52:30.909Z,5.90
2022-12-12T11:54:59.346Z,6.57
2022-12-12T11:58:04.075Z,8.43
2022-12-12T12:00:41.930Z,6.18
2022-12-12T12:03:29.789Z,6.07
2022-12-12T12:05:57.168Z,7.12
2022-12-12T12:08:40.072Z,7.65
2022-12-12T12:11:41.768Z,6.60
2022-12-12T12:14:17.477Z,5.82
2022-12-12T12:17:05.518Z,6.18
2022-12-12T12:19:57.437Z,5.95
2022-12-12T12:22:33.007Z,6.60
2022-12-12T12:25:15.434Z,6.10
2022-12-12T12:28:02.203Z,6.85
2022-12-12T12:31:04.726Z,7.15
2022-12-12T12:34:00.653Z,6.75
2022-12-12T12:36:33.891Z,7.45
2022-12-12T12:39:13.165Z,7.22
2022-12-12T12:42:31.836Z,7.05
2022-12-12T12:45:23.005Z,7.30
2022-12-12T12:48:26.318Z,7.07
2022-12-12T12:53:53.284Z,6.32
2022-12-12T12:56:26.541Z,6.85
2022-12-12T12:58:58.508Z,6.12
2022-12-12T13:01:35.177Z,6.80
2022-12-12T13:04:17.090Z,6.60
2022-12-12T13:06:58.764Z,5.82
2022-12-12T13:09:37.546Z,5.37
2022-12-12T13:12:12.852Z,5.47
2022-12-12T13:14:49.554Z,6.37
2022-12-12T13:17:26.917Z,5.43
2022-12-12T13:19:56.863Z,4.68
2022-12-12T13:22:33.130Z,5.18
2022-12-12T13:25:15.108Z,5.25
2022-12-12T13:27:46.050Z,5.15
2022-12-12T13:30:26.106Z,5.03
2022-12-12T13:33:15.826Z,5.78
2022-12-12T13:35:46.131Z,5.60
2022-12-12T13:38:26.631Z,6.25
2022-12-12T13:40:59.545Z,6.20
2022-12-12T13:43:39.144Z,5.30
2022-12-12T13:46:33.903Z,5.00
2022-12-12T13:49:07.316Z,5.95
2022-12-12T13:51:43.193Z,4.57
2022-12-12T13:54:13.743Z,5.10
2022-12-12T13:56:57.068Z,5.28
2022-12-12T13:59:26.988Z,5.80
2022-12-12T14:02:36.366Z,5.47
2022-12-12T14:05:07.043Z,5.25
2022-12-12T14:07:34.982Z,5.45
2022-12-12T14:10:17.076Z,6.22
2022-12-12T14:12:44.905Z,6.12
2022-12-12T14:15:21.640Z,7.03
2022-12-12T14:17:56.218Z,6.80
2022-12-12T14:20:27.547Z,6.50
2022-12-12T14:22:55.084Z,5.80
2022-12-12T14:25:39.258Z,6.45
2022-12-12T14:28:33.693Z,6.93
2022-12-12T14:31:14.688Z,6.70
2022-12-12T14:33:48.203Z,6.95
2022-12-12T14:36:50.358Z,7.30
2022-12-12T14:39:36.184Z,6.18
2022-12-12T14:42:06.209Z,6.70
2022-12-12T14:44:37.894Z,7.12
2022-12-12T14:47:07.348Z,7.30
2022-12-12T14:49:35.112Z,7.18
2022-12-12T14:52:02.666Z,7.22
2022-12-12T14:54:30.883Z,6.75
2022-12-12T14:56:59.227Z,6.85
2022-12-12T14:59:29.234Z,6.80
2022-12-12T15:02:01.158Z,6.60
2022-12-12T15:04:35.203Z,7.18
2022-12-12T15:07:04.761Z,6.75
2022-12-12T15:09:39.470Z,9.40
2022-12-12T15:12:09.863Z,8.82
2022-12-12T15:14:39.408Z,8.45
2022-12-12T15:17:08.521Z,7.28
2022-12-12T15:19:44.689Z,8.45
2022-12-12T15:22:21.821Z,8.05
2022-12-12T15:24:49.955Z,7.82
2022-12-12T15:27:41.975Z,8.38
2022-12-12T15:30:24.088Z,6.90
2022-12-12T15:32:51.755Z,7.30
2022-12-12T15:35:21.735Z,8.00
2022-12-12T15:38:02.864Z,7.47
2022-12-12T15:40:35.162Z,8.30
2022-12-12T15:43:05.530Z,8.32
2022-12-12T15:45:45.191Z,10.63
2022-12-12T15:48:16.628Z,9.60
2022-12-12T15:50:44.082Z,11.05
2022-12-12T15:53:20.378Z,9.00
2022-12-12T15:56:23.390Z,8.75
2022-12-12T15:59:14.192Z,7.10
2022-12-12T16:01:42.035Z,7.53
2022-12-12T16:04:09.699Z,7.20
2022-12-12T16:06:42.385Z,8.88
2022-12-12T16:09:17.783Z,7.28
2022-12-12T16:11:55.438Z,8.38
2022-12-12T16:14:40.872Z,8.10
2022-12-12T16:17:18.235Z,8.20
2022-12-12T16:19:57.859Z,9.98
2022-12-12T16:22:32.193Z,8.65
2022-12-12T16:25:18.161Z,8.50
2022-12-12T16:27:47.791Z,7.65
2022-12-12T16:30:16.308Z,8.80
2022-12-12T16:32:44.157Z,8.63
2022-12-12T16:35:16.597Z,8.15
2022-12-12T16:37:45.516Z,7.22
2022-12-12T16:40:15.536Z,6.97
2022-12-12T16:42:45.863Z,7.07
2022-12-12T16:45:13.436Z,6.95
2022-12-12T16:47:40.782Z,6.45
2022-12-12T16:50:08.298Z,6.57
2022-12-12T16:52:36.226Z,7.28
2022-12-12T16:55:12.106Z,7.80
2022-12-12T16:57:40.716Z,7.97
2022-12-12T17:00:09.088Z,7.05
2022-12-12T17:02:36.720Z,7.68
2022-12-12T17:05:06.491Z,7.07
2022-12-12T17:07:33.824Z,6.87
2022-12-12T17:10:01.169Z,6.70
2022-12-12T17:12:28.761Z,8.40
2022-12-12T17:14:56.302Z,6.20
2022-12-12T17:17:23.615Z,6.43
2022-12-12T17:19:51.210Z,7.60
2022-12-12T17:22:18.504Z,7.53
2022-12-12T17:24:45.881Z,6.90
2022-12-12T17:27:13.492Z,6.90
2022-12-12T17:29:40.838Z,6.97
2022-12-12T17:32:08.395Z,6.75
2022-12-12T17:34:36.100Z,7.68
2022-12-12T17:37:03.475Z,7.53
2022-12-12T17:39:30.867Z,6.97
2022-12-12T17:41:58.442Z,6.95
2022-12-12T17:44:25.812Z,7.37
2022-12-12T17:46:53.326Z,7.35
2022-12-12T17:49:20.984Z,8.32
2022-12-12T17:51:48.344Z,7.97
2022-12-12T17:54:15.695Z,7.90
2022-12-12T17:56:43.317Z,8.13
2022-12-12T17:59:10.668Z,7.95
2022-12-12T18:01:38.024Z,8.15
2022-12-12T18:04:05.842Z,8.10
2022-12-12T18:06:34.998Z,9.32
2022-12-12T18:09:03.524Z,7.78
2022-12-12T18:11:33.555Z,9.18
2022-12-12T18:14:03.017Z,8.82
2022-12-12T18:16:32.216Z,8.45
2022-12-12T18:19:00.167Z,7.82
2022-12-12T18:24:18.948Z,7.82
2022-12-12T18:26:47.685Z,8.25
2022-12-12T18:29:15.050Z,7.68
2022-12-12T18:31:46.051Z,8.02
2022-12-12T18:34:14.171Z,7.80
2022-12-12T18:36:41.816Z,8.50
2022-12-12T18:39:10.674Z,7.57
2022-12-12T18:41:38.226Z,7.37
2022-12-12T18:44:07.408Z,8.18
2022-12-12T18:46:42.423Z,8.45
2022-12-12T18:49:13.805Z,8.00
2022-12-12T18:51:42.157Z,7.93
2022-12-12T18:54:15.048Z,8.20
2022-12-12T18:56:46.959Z,7.70
2022-12-12T18:59:15.412Z,8.57
2022-12-12T19:01:43.911Z,8.30
2022-12-12T19:04:15.099Z,8.55
2022-12-12T19:06:45.318Z,9.02
2022-12-12T19:09:17.126Z,8.02
2022-12-12T19:11:45.082Z,8.52
2022-12-12T19:14:14.780Z,8.70
2022-12-12T19:16:43.114Z,7.97
2022-12-12T19:19:12.076Z,8.07
2022-12-12T19:21:41.292Z,8.85
2022-12-12T19:24:10.498Z,8.43
2022-12-12T19:26:40.466Z,8.15
2022-12-12T19:29:11.605Z,8.00
2022-12-12T19:31:39.484Z,8.23
2022-12-12T19:34:08.673Z,9.15
2022-12-12T19:36:36.118Z,8.45
2022-12-12T19:39:05.100Z,7.80
2022-12-12T19:41:32.747Z,7.55
2022-12-12T19:44:05.550Z,7.37
2022-12-12T19:46:33.377Z,7.65
2022-12-12T19:49:02.442Z,7.82
2022-12-12T19:51:32.781Z,7.65
2022-12-12T19:54:00.586Z,7.97
2022-12-12T19:56:33.704Z,8.23
2022-12-12T19:59:01.880Z,8.18
2022-12-12T20:01:31.813Z,7.20
2022-12-12T20:04:02.893Z,8.13
2022-12-12T20:06:30.343Z,7.82
2022-12-12T20:08:59.058Z,8.27
2022-12-12T20:11:26.778Z,7.65
2022-12-12T20:13:56.115Z,7.55
2022-12-12T20:16:26.330Z,7.57
2022-12-12T20:18:54.699Z,8.20
2022-12-12T20:21:59.267Z,7.68
2022-12-12T20:24:14.810Z,7.93
2022-12-12T20:26:42.580Z,7.78
2022-12-12T20:29:11.942Z,8.77
2022-12-12T20:31:43.650Z,8.65
2022-12-12T20:34:13.616Z,8.93
2022-12-12T20:36:41.637Z,8.68
2022-12-12T20:39:13.671Z,8.95
2022-12-12T20:44:10.236Z,8.07
2022-12-12T20:46:39.191Z,8.73
2022-12-12T20:49:11.772Z,8.40
2022-12-12T20:51:55.439Z,8.30
2022-12-12T20:54:25.599Z,9.98
2022-12-12T20:56:53.924Z,9.60
2022-12-12T20:59:21.402Z,9.13
2022-12-12T21:01:49.114Z,9.57
2022-12-12T21:04:16.591Z,10.18
2022-12-12T21:06:48.104Z,10.30
2022-12-12T21:09:23.245Z,10.27
2022-12-12T21:11:56.880Z,11.27
2022-12-12T21:16:52.299Z,10.10
2022-12-12T21:19:20.949Z,9.75
2022-12-12T21:21:48.801Z,9.27
2022-12-12T21:24:16.952Z,9.05
2022-12-12T21:26:45.258Z,9.73
2022-12-12T21:29:13.147Z,9.88
2022-12-12T21:31:51.108Z,9.15
2022-12-12T21:34:21.267Z,9.77
2022-12-12T21:36:53.995Z,8.75
2022-12-12T21:39:23.256Z,8.98
2022-12-12T21:41:51.498Z,9.65
2022-12-12T21:44:20.073Z,9.50
2022-12-12T21:46:48.108Z,9.10
2022-12-12T21:49:27.828Z,9.95
2022-12-12T21:51:57.816Z,9.55
2022-12-12T21:54:26.347Z,8.70
2022-12-12T21:56:55.343Z,8.68
2022-12-12T21:59:23.447Z,8.35
2022-12-12T22:01:52.912Z,9.45
2022-12-12T22:04:20.568Z,9.07
2022-12-12T22:06:47.906Z,9.55
2022-12-12T22:09:15.297Z,8.75
2022-12-12T22:11:48.483Z,9.27
2022-12-12T22:14:17.876Z,8.70
2022-12-12T22:16:45.452Z,9.07
2022-12-12T22:19:14.155Z,8.73
2022-12-12T22:21:44.240Z,8.07
2022-12-12T22:24:11.933Z,9.20
2022-12-12T22:26:41.474Z,9.27
2022-12-12T22:29:12.562Z,8.65
2022-12-12T22:31:41.113Z,9.65
2022-12-12T22:34:12.983Z,8.88
2022-12-12T22:36:40.622Z,9.38
2022-12-12T22:39:12.864Z,8.52
2022-12-12T22:41:40.244Z,8.85
2022-12-12T22:44:08.024Z,8.68
2022-12-12T22:46:40.692Z,8.35
2022-12-12T22:49:13.293Z,8.73
2022-12-12T22:51:41.045Z,8.10
2022-12-12T22:54:08.488Z,9.18
2022-12-12T22:56:37.531Z,8.50
2022-12-12T22:59:05.854Z,8.93
2022-12-12T23:01:33.544Z,8.93
2022-12-12T23:04:01.249Z,8.15
2022-12-12T23:06:30.649Z,9.43
2022-12-12T23:09:06.958Z,8.85
2022-12-12T23:11:35.652Z,9.30
2022-12-12T23:14:06.566Z,8.90
2022-12-12T23:16:35.500Z,8.30
2022-12-12T23:19:04.649Z,8.60
2022-12-12T23:21:32.454Z,9.27
2022-12-12T23:23:59.891Z,8.30
2022-12-12T23:26:30.146Z,8.35
2022-12-12T23:28:59.017Z,8.77
2022-12-12T23:31:29.019Z,8.85
2022-12-12T23:33:58.919Z,8.27
2022-12-12T23:36:27.148Z,8.05
2022-12-12T23:38:59.083Z,9.27
2022-12-12T23:41:27.346Z,9.05
2022-12-12T23:43:55.925Z,8.55
2022-12-12T23:46:33.584Z,9.18
2022-12-12T23:49:11.684Z,9.25
2022-12-12T23:51:46.683Z,8.10
2022-12-12T23:54:20.262Z,8.35
2022-12-12T23:56:48.292Z,7.55
2022-12-12T23:59:18.153Z,8.13
